Time,TemperatureF,DewpointF,PressureIn,WindDirection,WindDirectionDegrees,WindSpeedMPH,WindSpeedGustMPH,Humidity,HourlyPrecipIn,Conditions,Clouds,dailyrainin,SoftwareType,DateUTC
2013-07-23 00:05:00,73.5,72.0,29.73,South,172,0.0,0.0,95,0.00,,,0.00,Wunderground v.1.15,2013-07-23 04:05:00,
2013-07-23 00:10:00,73.5,72.0,29.73,South,172,0.0,0.0,95,0.00,,,0.00,Wunderground v.1.15,2013-07-23 04:10:00,
2013-07-23 00:15:00,73.4,71.9,29.73,South,172,0.0,0.0,95,0.00,,,0.00,Wunderground v.1.15,2013-07-23 04:15:00,
2013-07-23 00:20:00,73.3,71.8,29.72,South,172,0.0,0.0,95,0.00,,,0.00,Wunderground v.1.15,2013-07-23 04:20:00,
2013-07-23 00:25:00,73.4,72.2,29.72,South,172,0.0,0.0,96,0.00,,,0.00,Wunderground v.1.15,2013-07-23 04:25:00,
2013-07-23 00:30:00,73.3,72.1,29.72,South,172,0.0,0.0,96,0.00,,,0.00,Wunderground v.1.15,2013-07-23 04:30:00,
2013-07-23 00:40:00,73.1,71.9,29.72,South,172,0.0,0.0,96,0.00,,,0.00,Wunderground v.1.15,2013-07-23 04:40:00,
2013-07-23 00:50:00,72.9,71.7,29.71,South,172,0.0,0.0,96,0.00,,,0.00,Wunderground v.1.15,2013-07-23 04:50:00,
2013-07-23 00:55:00,72.8,71.6,29.71,South,172,0.0,0.0,96,0.00,,,0.00,Wunderground v.1.15,2013-07-23 04:55:00,
2013-07-23 01:05:00,72.6,71.7,29.71,South,172,0.0,0.0,97,0.00,,,0.00,Wunderground v.1.15,2013-07-23 05:05:00,
2013-07-23 01:14:00,72.5,71.6,29.70,South,172,0.0,0.0,97,0.00,,,0.00,Wunderground v.1.15,2013-07-23 05:14:00,
2013-07-23 01:20:00,72.5,71.6,29.70,South,172,0.0,0.0,97,0.00,,,0.00,Wunderground v.1.15,2013-07-23 05:20:00,
2013-07-23 01:25:00,72.4,71.5,29.70,South,172,0.0,0.0,97,0.00,,,0.00,Wunderground v.1.15,2013-07-23 05:25:00,
2013-07-23 01:30:00,72.3,71.4,29.70,South,172,0.0,0.0,97,0.00,,,0.00,Wunderground v.1.15,2013-07-23 05:30:00,
2013-07-23 01:40:00,72.3,71.4,29.70,South,172,0.0,0.0,97,0.00,,,0.00,Wunderground v.1.15,2013-07-23 05:40:00,
2013-07-23 01:50:00,72.2,71.3,29.70,South,172,0.0,0.0,97,0.00,,,0.00,Wunderground v.1.15,2013-07-23 05:50:00,
2013-07-23 01:55:00,72.2,71.3,29.71,South,172,0.0,0.0,97,0.00,,,0.00,Wunderground v.1.15,2013-07-23 05:55:00,
2013-07-23 02:05:00,72.1,71.2,29.71,South,172,0.0,0.0,97,0.00,,,0.00,Wunderground v.1.15,2013-07-23 06:05:00,
2013-07-23 02:15:00,72.1,71.5,29.70,South,172,0.0,0.0,98,0.00,,,0.00,Wunderground v.1.15,2013-07-23 06:15:00,
2013-07-23 02:25:00,72.1,71.2,29.69,South,172,0.0,0.0,97,0.00,,,0.00,Wunderground v.1.15,2013-07-23 06:25:00,
2013-07-23 02:35:00,72.1,71.2,29.69,South,172,0.0,0.0,97,0.00,,,0.00,Wunderground v.1.15,2013-07-23 06:35:00,
2013-07-23 02:40:00,72.1,71.2,29.69,South,172,0.0,0.0,97,0.00,,,0.00,Wunderground v.1.15,2013-07-23 06:40:00,
2013-07-23 02:50:00,72.0,71.1,29.69,South,172,0.0,0.0,97,0.00,,,0.00,Wunderground v.1.15,2013-07-23 06:50:00,
2013-07-23 02:55:00,72.0,71.4,29.69,South,172,0.0,0.0,98,0.00,,,0.00,Wunderground v.1.15,2013-07-23 06:55:00,
2013-07-23 03:05:00,71.9,71.0,29.69,South,172,0.0,0.0,97,0.00,,,0.00,Wunderground v.1.15,2013-07-23 07:05:00,
2013-07-23 03:15:00,71.8,71.2,29.69,South,172,0.0,0.0,98,0.00,,,0.00,Wunderground v.1.15,2013-07-23 07:15:00,
2013-07-23 03:25:00,71.8,71.2,29.68,South,172,0.0,0.0,98,0.00,,,0.00,Wunderground v.1.15,2013-07-23 07:25:00,
2013-07-23 03:30:00,71.7,71.1,29.68,South,172,0.0,0.0,98,0.00,,,0.00,Wunderground v.1.15,2013-07-23 07:30:00,
2013-07-23 03:40:00,71.5,70.9,29.68,South,172,0.0,0.0,98,0.00,,,0.00,Wunderground v.1.15,2013-07-23 07:40:00,
2013-07-23 03:50:00,71.3,70.7,29.68,South,172,0.0,0.0,98,0.00,,,0.00,Wunderground v.1.15,2013-07-23 07:50:00,
2013-07-23 03:55:00,71.4,70.8,29.68,South,172,0.0,0.0,98,0.00,,,0.00,Wunderground v.1.15,2013-07-23 07:55:00,
2013-07-23 04:05:00,71.3,70.7,29.68,South,172,0.0,0.0,98,0.00,,,0.00,Wunderground v.1.15,2013-07-23 08:05:00,
2013-07-23 04:15:00,71.1,70.5,29.68,South,172,0.0,0.0,98,0.00,,,0.00,Wunderground v.1.15,2013-07-23 08:15:00,
2013-07-23 04:25:00,71.1,70.5,29.68,South,172,0.0,0.0,98,0.00,,,0.00,Wunderground v.1.15,2013-07-23 08:25:00,
2013-07-23 04:30:00,71.0,70.4,29.67,South,172,0.0,0.0,98,0.00,,,0.00,Wunderground v.1.15,2013-07-23 08:30:00,
2013-07-23 04:40:00,71.1,70.5,29.67,South,172,0.0,0.0,98,0.00,,,0.00,Wunderground v.1.15,2013-07-23 08:40:00,
2013-07-23 04:50:00,71.3,70.7,29.67,South,172,0.0,0.0,98,0.00,,,0.00,Wunderground v.1.15,2013-07-23 08:50:00,
2013-07-23 04:55:00,71.6,71.0,29.67,South,172,0.0,0.0,98,0.00,,,0.00,Wunderground v.1.15,2013-07-23 08:55:00,
2013-07-23 05:05:00,71.9,71.0,29.67,South,172,0.0,0.0,97,0.00,,,0.00,Wunderground v.1.15,2013-07-23 09:05:00,
2013-07-23 05:15:00,72.1,70.9,29.67,South,172,0.0,0.0,96,0.00,,,0.00,Wunderground v.1.15,2013-07-23 09:15:00,
2013-07-23 05:25:00,72.2,70.7,29.67,South,172,0.0,0.0,95,0.00,,,0.00,Wunderground v.1.15,2013-07-23 09:25:00,
2013-07-23 05:30:00,72.3,71.1,29.67,South,172,0.0,0.0,96,0.00,,,0.00,Wunderground v.1.15,2013-07-23 09:30:00,
2013-07-23 05:40:00,72.1,71.2,29.68,South,172,0.0,0.0,97,0.00,,,0.00,Wunderground v.1.15,2013-07-23 09:40:00,
2013-07-23 05:45:00,72.1,71.2,29.68,South,172,0.0,1.0,97,0.00,,,0.00,Wunderground v.1.15,2013-07-23 09:45:00,
2013-07-23 05:55:00,72.0,70.8,29.68,South,172,0.0,0.0,96,0.00,,,0.00,Wunderground v.1.15,2013-07-23 09:55:00,
2013-07-23 06:05:00,72.1,70.9,29.69,South,172,0.0,0.0,96,0.00,,,0.00,Wunderground v.1.15,2013-07-23 10:05:00,
2013-07-23 06:15:00,72.2,70.7,29.69,South,172,0.0,0.0,95,0.00,,,0.00,Wunderground v.1.15,2013-07-23 10:15:00,
2013-07-23 06:20:00,72.2,70.7,29.68,South,172,0.0,0.0,95,0.00,,,0.00,Wunderground v.1.15,2013-07-23 10:20:00,
2013-07-23 06:30:00,72.1,70.6,29.69,South,172,0.0,0.0,95,0.00,,,0.00,Wunderground v.1.15,2013-07-23 10:30:00,
2013-07-23 06:40:00,72.2,70.4,29.68,South,172,0.0,0.0,94,0.00,,,0.00,Wunderground v.1.15,2013-07-23 10:40:00,
2013-07-23 06:45:00,72.2,70.4,29.68,South,172,0.0,0.0,94,0.00,,,0.00,Wunderground v.1.15,2013-07-23 10:45:00,
2013-07-23 06:55:00,72.3,70.5,29.68,South,172,0.0,0.0,94,0.00,,,0.00,Wunderground v.1.15,2013-07-23 10:55:00,
2013-07-23 07:00:00,72.5,71.3,29.69,South,172,0.0,0.0,96,0.00,,,0.00,Wunderground v.1.15,2013-07-23 11:00:00,
2013-07-23 07:05:00,72.4,71.2,29.69,SSE,164,0.0,0.0,96,0.00,,,0.00,Wunderground v.1.15,2013-07-23 11:05:00,
2013-07-23 07:15:00,72.3,71.1,29.69,SSE,164,0.0,0.0,96,0.00,,,0.00,Wunderground v.1.15,2013-07-23 11:15:00,
2013-07-23 07:20:00,72.2,71.0,29.69,SSE,165,0.0,0.0,96,0.00,,,0.00,Wunderground v.1.15,2013-07-23 11:20:00,
2013-07-23 07:30:00,72.0,70.5,29.70,SSE,164,0.0,0.0,95,0.00,,,0.00,Wunderground v.1.15,2013-07-23 11:30:00,
2013-07-23 07:35:00,71.9,70.1,29.70,SSE,165,0.0,0.0,94,0.00,,,0.00,Wunderground v.1.15,2013-07-23 11:35:00,
2013-07-23 07:45:00,71.9,70.1,29.70,SSE,165,0.0,0.0,94,0.00,,,0.00,Wunderground v.1.15,2013-07-23 11:45:00,
2013-07-23 07:50:00,72.0,70.2,29.70,SSE,165,0.0,1.0,94,0.00,,,0.00,Wunderground v.1.15,2013-07-23 11:50:00,
2013-07-23 08:00:00,72.4,70.6,29.70,SSE,165,0.0,1.0,94,0.00,,,0.00,Wunderground v.1.15,2013-07-23 12:00:00,
2013-07-23 08:05:00,72.6,70.8,29.70,SSE,164,0.0,1.0,94,0.00,,,0.00,Wunderground v.1.15,2013-07-23 12:05:00,
2013-07-23 08:14:00,73.0,71.2,29.70,SSE,164,0.0,0.0,94,0.00,,,0.00,Wunderground v.1.15,2013-07-23 12:14:00,
2013-07-23 08:20:00,73.2,71.7,29.70,SSE,165,0.0,0.0,95,0.00,,,0.00,Wunderground v.1.15,2013-07-23 12:20:00,
2013-07-23 08:25:00,73.5,71.7,29.70,SSE,164,0.0,0.0,94,0.00,,,0.00,Wunderground v.1.15,2013-07-23 12:25:00,
2013-07-23 08:35:00,74.0,71.8,29.70,SW,223,0.0,0.0,93,0.00,,,0.00,Wunderground v.1.15,2013-07-23 12:35:00,
2013-07-23 08:45:00,74.9,72.1,29.70,SW,222,0.0,0.0,91,0.00,,,0.00,Wunderground v.1.15,2013-07-23 12:45:00,
2013-07-23 08:50:00,75.4,72.3,29.70,SW,222,0.0,0.0,90,0.00,,,0.00,Wunderground v.1.15,2013-07-23 12:50:00,
2013-07-23 09:00:00,75.8,71.7,29.70,SW,223,0.0,0.0,87,0.00,,,0.00,Wunderground v.1.15,2013-07-23 13:00:00,
2013-07-23 09:05:00,75.9,71.8,29.70,SW,222,0.0,0.0,87,0.00,,,0.00,Wunderground v.1.15,2013-07-23 13:05:00,
2013-07-23 09:14:00,76.0,71.5,29.70,SW,223,0.0,0.0,86,0.00,,,0.00,Wunderground v.1.15,2013-07-23 13:14:00,
2013-07-23 09:20:00,75.9,71.4,29.70,SW,222,0.0,0.0,86,0.00,,,0.00,Wunderground v.1.15,2013-07-23 13:20:00,
2013-07-23 09:25:00,75.9,71.4,29.70,SE,136,0.0,0.0,86,0.00,,,0.00,Wunderground v.1.15,2013-07-23 13:25:00,
2013-07-23 09:35:00,76.4,71.2,29.70,SSW,207,0.0,0.0,84,0.00,,,0.00,Wunderground v.1.15,2013-07-23 13:35:00,
2013-07-23 09:40:00,76.8,71.6,29.70,SSW,207,0.0,0.0,84,0.00,,,0.00,Wunderground v.1.15,2013-07-23 13:40:00,
2013-07-23 09:50:00,77.2,71.6,29.70,SE,131,0.0,0.0,83,0.00,,,0.00,Wunderground v.1.15,2013-07-23 13:50:00,
2013-07-23 10:00:00,77.7,71.4,29.70,SE,145,0.0,0.0,81,0.00,,,0.00,Wunderground v.1.15,2013-07-23 14:00:00,
2013-07-23 10:05:00,78.1,71.8,29.70,SE,145,0.0,0.0,81,0.00,,,0.00,Wunderground v.1.15,2013-07-23 14:05:00,
2013-07-23 10:15:00,78.7,72.0,29.70,NW,320,0.0,3.0,80,0.00,,,0.00,Wunderground v.1.15,2013-07-23 14:15:00,
2013-07-23 10:25:00,79.2,71.7,29.70,NW,326,0.0,0.0,78,0.00,,,0.00,Wunderground v.1.15,2013-07-23 14:25:00,
2013-07-23 10:30:00,79.4,72.3,29.69,NW,308,0.0,1.0,79,0.00,,,0.00,Wunderground v.1.15,2013-07-23 14:30:00,
2013-07-23 10:40:00,80.4,71.7,29.69,WSW,253,0.0,0.0,75,0.00,,,0.00,Wunderground v.1.15,2013-07-23 14:40:00,
2013-07-23 10:50:00,80.7,72.4,29.69,ENE,76,0.0,0.0,76,0.00,,,0.00,Wunderground v.1.15,2013-07-23 14:50:00,
2013-07-23 10:55:00,80.8,72.9,29.69,ENE,76,0.0,0.0,77,0.00,,,0.00,Wunderground v.1.15,2013-07-23 14:55:00,
2013-07-23 11:05:00,80.8,72.5,29.69,SSW,207,0.0,1.0,76,0.00,,,0.00,Wunderground v.1.15,2013-07-23 15:05:00,
2013-07-23 11:15:00,80.9,72.6,29.69,NNW,329,0.0,1.0,76,0.00,,,0.00,Wunderground v.1.15,2013-07-23 15:15:00,
2013-07-23 11:25:00,81.1,72.0,29.70,SSE,160,0.0,1.0,74,0.00,,,0.00,Wunderground v.1.15,2013-07-23 15:25:00,
2013-07-23 11:30:00,81.3,71.0,29.70,SSE,167,0.0,0.0,71,0.00,,,0.00,Wunderground v.1.15,2013-07-23 15:30:00,
2013-07-23 11:40:00,81.8,71.5,29.70,WNW,286,0.0,0.0,71,0.00,,,0.00,Wunderground v.1.15,2013-07-23 15:40:00,
2013-07-23 11:45:00,82.0,71.2,29.70,NW,314,0.0,0.0,70,0.00,,,0.00,Wunderground v.1.15,2013-07-23 15:45:00,
2013-07-23 11:55:00,82.0,72.1,29.70,WNW,290,0.0,0.0,72,0.00,,,0.00,Wunderground v.1.15,2013-07-23 15:55:00,
2013-07-23 12:00:00,81.9,72.0,29.70,SW,229,0.0,0.0,72,0.00,,,0.00,Wunderground v.1.15,2013-07-23 16:00:00,
2013-07-23 12:05:00,81.8,72.3,29.70,SW,225,0.0,0.0,73,0.00,,,0.00,Wunderground v.1.15,2013-07-23 16:05:00,
2013-07-23 12:15:00,82.2,71.9,29.70,South,188,0.0,2.0,71,0.00,,,0.00,Wunderground v.1.15,2013-07-23 16:15:00,
2013-07-23 12:20:00,82.5,72.1,29.70,NW,310,1.0,1.0,71,0.00,,,0.00,Wunderground v.1.15,2013-07-23 16:20:00,
2013-07-23 12:30:00,83.1,72.7,29.69,NNW,337,0.0,0.0,71,0.00,,,0.00,Wunderground v.1.15,2013-07-23 16:30:00,
2013-07-23 12:35:00,83.4,73.0,29.69,NNW,338,0.0,0.0,71,0.00,,,0.00,Wunderground v.1.15,2013-07-23 16:35:00,
2013-07-23 12:45:00,83.6,71.0,29.69,NW,326,0.0,0.0,66,0.00,,,0.00,Wunderground v.1.15,2013-07-23 16:45:00,
2013-07-23 12:55:00,84.6,72.0,29.69,NW,325,1.0,1.0,66,0.00,,,0.00,Wunderground v.1.15,2013-07-23 16:55:00,
2013-07-23 13:00:00,85.3,72.2,29.69,NW,324,1.0,1.0,65,0.00,,,0.00,Wunderground v.1.15,2013-07-23 17:00:00,
2013-07-23 13:05:00,85.4,73.2,29.69,SSW,199,0.0,2.0,67,0.00,,,0.00,Wunderground v.1.15,2013-07-23 17:05:00,
2013-07-23 13:15:00,84.8,74.3,29.69,North,349,0.0,2.0,71,0.00,,,0.00,Wunderground v.1.15,2013-07-23 17:15:00,
2013-07-23 13:20:00,84.7,75.1,29.69,North,359,0.0,0.0,73,0.00,,,0.00,Wunderground v.1.15,2013-07-23 17:20:00,
2013-07-23 13:30:00,85.2,73.4,29.69,North,359,0.0,0.0,68,0.00,,,0.00,Wunderground v.1.15,2013-07-23 17:30:00,
2013-07-23 13:35:00,84.9,74.0,29.69,North,359,0.0,0.0,70,0.00,,,0.00,Wunderground v.1.15,2013-07-23 17:35:00,
2013-07-23 13:45:00,84.7,74.3,29.69,NNE,26,0.0,0.0,71,0.00,,,0.00,Wunderground v.1.15,2013-07-23 17:45:00,
2013-07-23 13:50:00,85.4,74.5,29.69,NE,50,0.0,0.0,70,0.00,,,0.00,Wunderground v.1.15,2013-07-23 17:50:00,
2013-07-23 14:00:00,86.1,75.2,29.69,SSE,158,0.0,0.0,70,0.00,,,0.00,Wunderground v.1.15,2013-07-23 18:00:00,
2013-07-23 14:05:00,86.4,73.7,29.69,SSE,159,0.0,0.0,66,0.00,,,0.00,Wunderground v.1.15,2013-07-23 18:05:00,
2013-07-23 14:15:00,86.1,73.9,29.68,NNW,346,0.0,1.0,67,0.00,,,0.00,Wunderground v.1.15,2013-07-23 18:15:00,
2013-07-23 14:20:00,86.6,74.8,29.68,ESE,102,0.0,0.0,68,0.00,,,0.00,Wunderground v.1.15,2013-07-23 18:20:00,
2013-07-23 14:30:00,87.4,74.6,29.68,SE,127,0.0,0.0,66,0.00,,,0.00,Wunderground v.1.15,2013-07-23 18:30:00,
2013-07-23 14:35:00,87.5,75.2,29.68,NE,41,0.0,1.0,67,0.00,,,0.00,Wunderground v.1.15,2013-07-23 18:35:00,
2013-07-23 14:45:00,87.0,74.7,29.68,SSE,149,0.0,1.0,67,0.00,,,0.00,Wunderground v.1.15,2013-07-23 18:45:00,
2013-07-23 14:50:00,86.9,73.7,29.68,South,185,0.0,2.0,65,0.00,,,0.00,Wunderground v.1.15,2013-07-23 18:50:00,
2013-07-23 15:00:00,87.5,73.8,29.67,NNW,334,1.0,1.0,64,0.00,,,0.00,Wunderground v.1.15,2013-07-23 19:00:00,
2013-07-23 15:05:00,87.9,73.7,29.67,WSW,248,1.0,1.0,63,0.00,,,0.00,Wunderground v.1.15,2013-07-23 19:05:00,
2013-07-23 15:14:00,89.2,73.0,29.66,West,276,0.0,0.0,59,0.00,,,0.00,Wunderground v.1.15,2013-07-23 19:14:00,
2013-07-23 15:20:00,90.1,74.3,29.66,West,279,0.0,0.0,60,0.00,,,0.00,Wunderground v.1.15,2013-07-23 19:20:00,
2013-07-23 15:25:00,90.2,72.9,29.66,WNW,284,0.0,1.0,57,0.00,,,0.00,Wunderground v.1.15,2013-07-23 19:25:00,
2013-07-23 15:35:00,89.5,73.3,29.66,West,276,0.0,0.0,59,0.00,,,0.00,Wunderground v.1.15,2013-07-23 19:35:00,
2013-07-23 15:45:00,88.8,74.6,29.66,West,274,0.0,0.0,63,0.00,,,0.00,Wunderground v.1.15,2013-07-23 19:45:00,
2013-07-23 15:50:00,87.8,74.6,29.66,West,274,0.0,0.0,65,0.00,,,0.00,Wunderground v.1.15,2013-07-23 19:50:00,
2013-07-23 16:00:00,87.7,76.3,29.66,West,275,0.0,0.0,69,0.00,,,0.00,Wunderground v.1.15,2013-07-23 20:00:00,
2013-07-23 16:05:00,88.1,73.9,29.66,West,274,0.0,0.0,63,0.00,,,0.00,Wunderground v.1.15,2013-07-23 20:05:00,
2013-07-23 16:14:00,88.8,72.1,29.65,NW,325,1.0,3.0,58,0.00,,,0.00,Wunderground v.1.15,2013-07-23 20:14:00,
2013-07-23 16:20:00,89.2,74.5,29.65,SSW,192,1.0,1.0,62,0.00,,,0.00,Wunderground v.1.15,2013-07-23 20:20:00,
2013-07-23 16:30:00,89.0,73.3,29.65,WSW,248,0.0,0.0,60,0.00,,,0.00,Wunderground v.1.15,2013-07-23 20:30:00,
2013-07-23 16:35:00,88.0,73.3,29.64,WSW,249,0.0,0.0,62,0.00,,,0.00,Wunderground v.1.15,2013-07-23 20:35:00,
2013-07-23 16:45:00,87.6,72.5,29.64,WSW,249,0.0,0.0,61,0.00,,,0.00,Wunderground v.1.15,2013-07-23 20:45:00,
2013-07-23 16:50:00,88.1,73.4,29.64,WSW,250,0.0,0.0,62,0.00,,,0.00,Wunderground v.1.15,2013-07-23 20:50:00,
2013-07-23 16:55:00,88.3,74.1,29.64,WSW,250,0.0,0.0,63,0.00,,,0.00,Wunderground v.1.15,2013-07-23 20:55:00,
2013-07-23 17:10:00,87.9,73.7,29.63,WSW,239,0.0,0.0,63,0.00,,,0.00,Wunderground v.1.15,2013-07-23 21:10:00,
2013-07-23 17:15:00,87.9,73.3,29.63,WSW,239,0.0,0.0,62,0.00,,,0.00,Wunderground v.1.15,2013-07-23 21:15:00,
2013-07-23 17:24:00,87.8,73.2,29.63,WSW,239,0.0,1.0,62,0.00,,,0.00,Wunderground v.1.15,2013-07-23 21:24:00,
2013-07-23 17:30:00,88.2,74.9,29.63,WSW,239,0.0,0.0,65,0.00,,,0.00,Wunderground v.1.15,2013-07-23 21:30:00,
2013-07-23 17:35:00,88.5,74.3,29.63,WSW,239,0.0,0.0,63,0.00,,,0.00,Wunderground v.1.15,2013-07-23 21:35:00,
2013-07-23 17:45:00,87.9,74.7,29.62,WSW,239,0.0,0.0,65,0.00,,,0.00,Wunderground v.1.15,2013-07-23 21:45:00,
2013-07-23 17:54:00,87.1,75.7,29.62,WSW,239,0.0,0.0,69,0.00,,,0.00,Wunderground v.1.15,2013-07-23 21:54:00,
2013-07-23 18:00:00,86.7,72.6,29.62,WSW,239,0.0,0.0,63,0.00,,,0.00,Wunderground v.1.15,2013-07-23 22:00:00,
2013-07-23 18:05:00,86.6,73.4,29.62,WSW,239,0.0,0.0,65,0.00,,,0.00,Wunderground v.1.15,2013-07-23 22:05:00,
2013-07-23 18:14:00,85.8,74.0,29.62,WSW,239,0.0,0.0,68,0.00,,,0.00,Wunderground v.1.15,2013-07-23 22:14:00,
2013-07-23 18:20:00,85.5,73.7,29.62,WSW,239,0.0,0.0,68,0.00,,,0.00,Wunderground v.1.15,2013-07-23 22:20:00,
2013-07-23 18:25:00,85.4,74.9,29.62,WSW,239,0.0,0.0,71,0.00,,,0.00,Wunderground v.1.15,2013-07-23 22:25:00,
2013-07-23 18:35:00,85.0,74.5,29.63,WSW,239,0.0,0.0,71,0.00,,,0.00,Wunderground v.1.15,2013-07-23 22:35:00,
2013-07-23 18:45:00,84.6,75.8,29.62,WSW,239,0.0,0.0,75,0.00,,,0.00,Wunderground v.1.15,2013-07-23 22:45:00,
2013-07-23 18:50:00,84.4,76.0,29.63,WSW,239,0.0,0.0,76,0.00,,,0.00,Wunderground v.1.15,2013-07-23 22:50:00,
2013-07-23 19:00:00,84.1,75.7,29.63,WSW,239,0.0,0.0,76,0.00,,,0.00,Wunderground v.1.15,2013-07-23 23:00:00,
2013-07-23 19:05:00,83.8,75.8,29.63,WSW,239,0.0,0.0,77,0.00,,,0.00,Wunderground v.1.15,2013-07-23 23:05:00,
2013-07-23 19:15:00,83.6,76.4,29.63,WSW,239,0.0,0.0,79,0.00,,,0.00,Wunderground v.1.15,2013-07-23 23:15:00,
2013-07-23 19:25:00,83.6,76.0,29.64,WSW,239,0.0,0.0,78,0.00,,,0.00,Wunderground v.1.15,2013-07-23 23:25:00,
2013-07-23 19:35:00,83.5,75.9,29.63,WSW,239,0.0,0.0,78,0.00,,,0.00,Wunderground v.1.15,2013-07-23 23:35:00,
2013-07-23 19:40:00,83.4,75.0,29.64,WSW,239,0.0,0.0,76,0.00,,,0.00,Wunderground v.1.15,2013-07-23 23:40:00,
2013-07-23 20:00:00,82.2,75.0,29.64,WSW,239,0.0,0.0,79,0.00,,,0.00,Wunderground v.1.15,2013-07-24 00:00:00,
2013-07-23 20:05:00,81.8,75.0,29.64,WSW,239,0.0,0.0,80,0.00,,,0.00,Wunderground v.1.15,2013-07-24 00:05:00,
2013-07-23 20:15:00,81.3,75.3,29.64,WSW,239,0.0,0.0,82,0.00,,,0.00,Wunderground v.1.15,2013-07-24 00:15:00,
2013-07-23 20:29:00,80.0,74.7,29.65,WSW,239,0.0,0.0,84,0.00,,,0.00,Wunderground v.1.15,2013-07-24 00:29:00,
2013-07-23 20:35:00,79.8,75.2,29.65,WSW,239,0.0,0.0,86,0.00,,,0.00,Wunderground v.1.15,2013-07-24 00:35:00,
2013-07-23 20:44:00,79.1,74.9,29.65,WSW,239,0.0,0.0,87,0.00,,,0.00,Wunderground v.1.15,2013-07-24 00:44:00,
2013-07-23 20:50:00,78.7,74.5,29.66,WSW,239,0.0,0.0,87,0.00,,,0.00,Wunderground v.1.15,2013-07-24 00:50:00,
2013-07-23 20:59:00,78.1,73.9,29.66,WSW,239,0.0,0.0,87,0.00,,,0.00,Wunderground v.1.15,2013-07-24 00:59:00,
2013-07-23 21:05:00,77.9,74.1,29.66,WSW,239,0.0,0.0,88,0.00,,,0.00,Wunderground v.1.15,2013-07-24 01:05:00,
2013-07-23 21:15:00,77.6,73.8,29.67,WSW,239,0.0,0.0,88,0.00,,,0.00,Wunderground v.1.15,2013-07-24 01:15:00,
2013-07-23 21:25:00,77.3,72.8,29.67,WSW,239,0.0,0.0,86,0.00,,,0.00,Wunderground v.1.15,2013-07-24 01:25:00,
2013-07-23 21:30:00,77.3,73.8,29.67,WSW,239,0.0,0.0,89,0.00,,,0.00,Wunderground v.1.15,2013-07-24 01:30:00,
2013-07-23 21:40:00,77.0,73.5,29.68,WSW,239,0.0,0.0,89,0.00,,,0.00,Wunderground v.1.15,2013-07-24 01:40:00,
2013-07-23 21:45:00,76.8,73.3,29.67,WSW,239,0.0,0.0,89,0.00,,,0.00,Wunderground v.1.15,2013-07-24 01:45:00,
2013-07-23 21:55:00,76.4,73.2,29.67,WSW,239,0.0,0.0,90,0.00,,,0.00,Wunderground v.1.15,2013-07-24 01:55:00,
2013-07-23 22:05:00,76.0,73.2,29.67,WSW,239,0.0,0.0,91,0.00,,,0.00,Wunderground v.1.15,2013-07-24 02:05:00,
2013-07-23 22:15:00,75.6,72.8,29.67,WSW,239,0.0,0.0,91,0.00,,,0.00,Wunderground v.1.15,2013-07-24 02:15:00,
2013-07-23 22:20:00,75.5,72.7,29.67,WSW,239,0.0,0.0,91,0.00,,,0.00,Wunderground v.1.15,2013-07-24 02:20:00,
2013-07-23 22:30:00,75.0,72.2,29.68,WSW,239,0.0,0.0,91,0.00,,,0.00,Wunderground v.1.15,2013-07-24 02:30:00,
2013-07-23 22:40:00,74.7,72.5,29.68,WSW,239,0.0,0.0,93,0.00,,,0.00,Wunderground v.1.15,2013-07-24 02:40:00,
2013-07-23 22:45:00,74.5,72.3,29.69,WSW,239,0.0,0.0,93,0.00,,,0.00,Wunderground v.1.15,2013-07-24 02:45:00,
2013-07-23 22:55:00,74.2,72.0,29.69,WSW,239,0.0,0.0,93,0.00,,,0.00,Wunderground v.1.15,2013-07-24 02:55:00,
2013-07-23 23:00:00,73.9,71.4,29.69,WSW,239,0.0,0.0,92,0.00,,,0.00,Wunderground v.1.15,2013-07-24 03:00:00,
2013-07-23 23:05:00,73.8,71.3,29.68,WSW,239,0.0,0.0,92,0.00,,,0.00,Wunderground v.1.15,2013-07-24 03:05:00,
2013-07-23 23:15:00,73.6,71.4,29.69,WSW,239,0.0,0.0,93,0.00,,,0.00,Wunderground v.1.15,2013-07-24 03:15:00,
2013-07-23 23:25:00,73.3,70.8,29.69,WSW,239,0.0,0.0,92,0.00,,,0.00,Wunderground v.1.15,2013-07-24 03:25:00,
2013-07-23 23:30:00,73.1,71.0,29.69,WSW,239,0.0,0.0,93,0.00,,,0.00,Wunderground v.1.15,2013-07-24 03:30:00,
2013-07-23 23:40:00,72.8,70.7,29.69,WSW,239,0.0,0.0,93,0.00,,,0.00,Wunderground v.1.15,2013-07-24 03:40:00,
2013-07-23 23:45:00,72.6,70.5,29.70,WSW,239,0.0,0.0,93,0.00,,,0.00,Wunderground v.1.15,2013-07-24 03:45:00,
2013-07-23 23:50:00,72.4,70.3,29.70,WSW,239,0.0,0.0,93,0.00,,,0.00,Wunderground v.1.15,2013-07-24 03:50:00,